Time;durP1;ratioP1;P1;durP2;ratioP2;P2;SDS_P1;SDS_P2;PMS_P1;PMS_P2;Temp;Humidity;BMP_temperature;BMP_pressure;BME280_temperature;BME280_humidity;BME280_pressure;Samples;Min_cycle;Max_cycle;Signal;HPM_P1;HPM_P2
2022/10/29 00:01:04;;;;;;;33.80;31.10;;;;;;;8.41;98.03;98604.82;104621;1307;22562;-82
2022/10/29 00:03:39;;;;;;;;;;;;;;;8.31;98.13;98605.85;104234;1297;22424;-87
2022/10/29 00:06:10;;;;;;;34.70;31.90;;;;;;;8.17;98.36;98604.38;104258;1310;23869;-88
2022/10/29 00:08:40;;;;;;;36.70;33.70;;;;;;;8.14;98.80;98596.42;104143;1310;22558;-90
2022/10/29 00:11:12;;;;;;;30.40;27.60;;;;;;;8.19;98.69;98597.61;104818;1285;22652;-87
2022/10/29 00:13:41;;;;;;;33.20;30.30;;;;;;;8.15;98.25;98600.77;104109;1283;24250;-89
2022/10/29 00:16:09;;;;;;;29.70;27.10;;;;;;;8.07;98.17;98599.14;103852;1282;22523;-86
2022/10/29 00:18:39;;;;;;;36.90;33.50;;;;;;;8.05;98.34;98604.13;103993;1278;22448;-89
2022/10/29 00:21:09;;;;;;;35.20;31.80;;;;;;;8.01;99.07;98609.27;104107;1288;22473;-90
2022/10/29 00:23:37;;;;;;;34.40;31.20;;;;;;;7.98;98.58;98608.72;103958;1285;22883;-91
2022/10/29 00:26:06;;;;;;;33.60;30.90;;;;;;;7.99;98.68;98611.67;103912;1287;22612;-86
2022/10/29 00:28:34;;;;;;;32.20;29.60;;;;;;;8.03;99.44;98614.05;103879;1297;25387;-89
2022/10/29 00:31:17;;;;;;;40.30;36.80;;;;;;;8.09;99.43;98608.27;103698;1310;24270;-88
2022/10/29 00:33:45;;;;;;;36.80;33.30;;;;;;;8.18;99.30;98610.17;103847;1310;23877;-87
2022/10/29 00:36:23;;;;;;;32.80;29.80;;;;;;;8.25;98.79;98611.63;103591;1288;25197;-88
2022/10/29 00:38:51;;;;;;;34.40;31.00;;;;;;;8.34;99.06;98606.39;103431;1307;22479;-92
2022/10/29 00:41:25;;;;;;;34.10;31.20;;;;;;;8.23;99.08;98583.80;103986;1308;22483;-89
2022/10/29 00:44:27;;;;;;;36.80;33.80;;;;;;;8.48;99.67;98611.27;104267;1302;22594;-87
2022/10/29 00:47:09;;;;;;;35.90;32.90;;;;;;;8.57;99.33;98611.00;103565;1317;22523;-88
2022/10/29 00:49:38;;;;;;;35.60;32.60;;;;;;;8.61;99.49;98613.10;103467;1317;22479;-91
2022/10/29 00:52:08;;;;;;;38.80;35.10;;;;;;;8.62;98.60;98611.28;103100;1293;23115;-91
2022/10/29 00:54:41;;;;;;;33.70;30.50;;;;;;;8.63;99.37;98603.96;102881;1297;24262;-84
2022/10/29 00:57:19;;;;;;;35.60;32.50;;;;;;;8.72;99.26;98599.95;102823;1295;24272;-89
2022/10/29 00:59:49;;;;;;;31.90;29.10;;;;;;;8.77;99.71;98596.98;102664;1297;24908;-90
2022/10/29 01:02:17;;;;;;;30.10;27.50;;;;;;;8.88;99.96;98594.45;103067;1317;26486;-89
2022/10/29 01:04:45;;;;;;;31.90;28.60;;;;;;;8.99;100.00;98591.80;102523;1294;23498;-87
2022/10/29 01:07:14;;;;;;;31.40;28.70;;;;;;;9.06;99.95;98589.38;102730;1287;26241;-87
2022/10/29 01:09:42;;;;;;;30.30;27.60;;;;;;;9.15;100.00;98585.70;103258;1310;22494;-90
2022/10/29 01:12:34;;;;;;;30.70;28.00;;;;;;;9.21;100.00;98581.00;102901;1301;22205;-89
2022/10/29 01:15:05;;;;;;;31.60;28.90;;;;;;;9.26;100.00;98581.75;102724;1294;22486;-88
2022/10/29 01:18:08;;;;;;;33.40;30.70;;;;;;;9.30;100.00;98582.76;102887;1294;22495;-84
2022/10/29 01:21:07;;;;;;;34.00;31.30;;;;;;;9.35;100.00;98574.45;102750;1318;22492;-88
2022/10/29 01:23:49;;;;;;;37.80;34.60;;;;;;;9.31;99.68;98571.57;103034;1310;24230;-86
2022/10/29 01:26:58;;;;;;;35.40;32.10;;;;;;;9.30;99.78;98576.41;103863;1284;22483;-89
2022/10/29 01:29:32;;;;;;;34.10;31.20;;;;;;;9.27;99.80;98578.20;103634;1310;22952;-86
2022/10/29 01:32:10;;;;;;;36.00;32.80;;;;;;;9.17;99.54;98577.84;103718;1285;23380;-88
2022/10/29 01:34:42;;;;;;;33.00;29.90;;;;;;;9.13;99.64;98575.86;103386;1284;25143;-89
2022/10/29 01:37:20;;;;;;;36.80;33.60;;;;;;;9.07;99.59;98572.80;103565;1309;22473;-86
2022/10/29 01:39:57;;;;;;;37.90;34.40;;;;;;;9.01;99.72;98564.27;103660;1304;22501;-88
2022/10/29 01:42:35;;;;;;;36.80;33.50;;;;;;;9.00;99.93;98561.27;103469;1287;22754;-87
2022/10/29 01:45:30;;;;;;;34.80;31.90;;;;;;;8.93;99.25;98561.39;104135;1288;25259;-84
2022/10/29 01:48:03;;;;;;;;;;;;;;;8.86;99.73;98558.70;103738;1286;23248;-87
2022/10/29 01:50:33;;;;;;;31.70;28.90;;;;;;;8.80;99.85;98562.48;103506;1278;22469;-86
2022/10/29 01:53:03;;;;;;;35.20;32.30;;;;;;;8.68;99.98;98559.26;103831;1310;22473;-91
2022/10/29 01:55:36;;;;;;;47.40;43.50;;;;;;;8.61;99.69;98564.20;103449;1310;25306;-89
2022/10/29 01:58:05;;;;;;;31.00;28.30;;;;;;;8.54;99.80;98565.23;103458;1293;22464;-88
2022/10/29 02:00:49;;;;;;;32.50;29.60;;;;;;;8.50;100.00;98566.69;104196;1286;22702;-87
2022/10/29 02:03:28;;;;;;;34.40;31.30;;;;;;;8.51;99.93;98562.92;103629;1287;22604;-88
2022/10/29 02:06:51;;;;;;;30.40;27.60;;;;;;;8.60;100.00;98553.80;103239;1288;22466;-90
2022/10/29 02:09:29;;;;;;;29.10;26.40;;;;;;;8.75;100.00;98547.96;103175;1292;25211;-87
2022/10/29 02:12:03;;;;;;;29.80;27.20;;;;;;;8.82;99.97;98542.64;103084;1294;25244;-90
2022/10/29 02:15:03;;;;;;;32.10;29.40;;;;;;;8.83;100.00;98542.86;103376;1315;23570;-88
2022/10/29 02:17:32;;;;;;;28.40;25.90;;;;;;;8.84;100.00;98544.73;103568;1315;22429;-90
2022/10/29 02:20:10;;;;;;;29.40;26.80;;;;;;;8.75;100.00;98549.86;104986;1290;23442;-86
2022/10/29 02:22:38;;;;;;;27.20;24.40;;;;;;;8.70;100.00;98555.56;105243;1315;22589;-86
2022/10/29 02:25:07;;;;;;;28.60;26.00;;;;;;;8.71;100.00;98560.34;105266;1315;24007;-85
2022/10/29 02:27:36;;;;;;;28.60;26.00;;;;;;;8.69;100.00;98566.09;105143;1309;22574;-86
2022/10/29 02:30:05;;;;;;;28.40;25.70;;;;;;;8.69;100.00;98568.39;104262;1315;22527;-86
2022/10/29 02:32:32;;;;;;;30.20;27.40;;;;;;;8.73;100.00;98556.09;103219;1301;22584;-83
2022/10/29 02:35:01;;;;;;;27.60;25.10;;;;;;;8.77;100.00;98555.13;103046;1315;22541;-90
2022/10/29 02:37:28;;;;;;;27.10;24.40;;;;;;;8.84;100.00;98544.20;103497;1316;23142;-90
2022/10/29 02:39:56;;;;;;;27.80;25.20;;;;;;;8.87;100.00;98541.62;103158;1316;25375;-90
2022/10/29 02:42:24;;;;;;;29.60;27.00;;;;;;;8.87;100.00;98544.04;103322;1294;22517;-90
2022/10/29 02:44:52;;;;;;;27.40;24.90;;;;;;;8.93;100.00;98541.98;103455;1300;26482;-91
2022/10/29 02:47:20;;;;;;;27.10;24.70;;;;;;;8.98;100.00;98539.82;103341;1310;24234;-91
2022/10/29 02:49:48;;;;;;;27.70;25.20;;;;;;;8.97;100.00;98540.63;103471;1288;23192;-89
2022/10/29 02:52:16;;;;;;;27.10;24.70;;;;;;;8.90;100.00;98540.80;103282;1309;25271;-90
2022/10/29 02:54:44;;;;;;;26.70;24.30;;;;;;;8.92;100.00;98540.74;103823;1284;23135;-89
2022/10/29 02:57:11;;;;;;;26.70;24.20;;;;;;;8.94;100.00;98540.10;103756;1310;22494;-91
2022/10/29 02:59:39;;;;;;;29.70;27.10;;;;;;;8.95;100.00;98542.19;103642;1307;22477;-89
2022/10/29 03:02:07;;;;;;;28.50;25.60;;;;;;;8.96;100.00;98538.77;104125;1310;24247;-89
2022/10/29 03:04:38;;;;;;;26.30;24.10;;;;;;;9.00;100.00;98537.13;103826;1310;22483;-90
2022/10/29 03:07:06;;;;;;;29.30;26.60;;;;;;;8.98;100.00;98537.77;104166;1310;24272;-91
2022/10/29 03:09:33;;;;;;;29.70;27.00;;;;;;;8.96;100.00;98538.16;103837;1310;24794;-85
2022/10/29 03:12:01;;;;;;;29.40;26.90;;;;;;;8.81;100.00;98543.19;103483;1289;22549;-85
2022/10/29 03:14:29;;;;;;;29.90;27.10;;;;;;;8.68;100.00;98540.18;103312;1281;22545;-85
2022/10/29 03:16:57;;;;;;;27.10;24.80;;;;;;;8.58;100.00;98537.24;103605;1288;25197;-89
2022/10/29 03:19:25;;;;;;;26.90;24.50;;;;;;;8.54;100.00;98532.41;103569;1310;22479;-88
2022/10/29 03:21:53;;;;;;;25.90;23.50;;;;;;;8.56;100.00;98530.31;104174;1310;22473;-86
2022/10/29 03:24:21;;;;;;;27.30;24.60;;;;;;;8.49;99.96;98528.91;103499;1313;22472;-87
2022/10/29 03:26:49;;;;;;;26.60;24.40;;;;;;;8.40;99.99;98536.70;103357;1310;22509;-85
2022/10/29 03:29:17;;;;;;;26.50;23.80;;;;;;;8.42;100.00;98537.02;103377;1310;22457;-86
2022/10/29 03:31:44;;;;;;;25.00;22.60;;;;;;;8.44;100.00;98520.33;103233;1292;24439;-86
2022/10/29 03:34:12;;;;;;;26.20;23.80;;;;;;;8.52;100.00;98526.23;103313;1289;25192;-86
2022/10/29 03:36:40;;;;;;;24.20;21.80;;;;;;;8.56;100.00;98530.86;103775;1310;26496;-86
2022/10/29 03:39:08;;;;;;;24.50;22.20;;;;;;;8.62;100.00;98525.89;103414;1284;23921;-85
2022/10/29 03:41:36;;;;;;;22.60;20.40;;;;;;;8.69;100.00;98518.37;103552;1285;22451;-86
2022/10/29 03:44:04;;;;;;;24.90;22.60;;;;;;;8.76;100.00;98516.65;103772;1286;26487;-82
2022/10/29 03:46:32;;;;;;;25.10;22.90;;;;;;;8.81;100.00;98520.40;103399;1286;25232;-87
2022/10/29 03:49:00;;;;;;;20.90;19.00;;;;;;;8.86;100.00;98527.48;103751;1313;22501;-88
2022/10/29 03:51:28;;;;;;;21.30;19.40;;;;;;;8.89;100.00;98535.60;103396;1312;25245;-87
2022/10/29 03:53:56;;;;;;;20.50;18.60;;;;;;;8.91;100.00;98538.16;103657;1310;25305;-87
2022/10/29 03:56:24;;;;;;;21.00;19.10;;;;;;;8.92;100.00;98539.02;103493;1288;24301;-89
2022/10/29 03:58:52;;;;;;;23.80;21.60;;;;;;;8.92;100.00;98538.33;103426;1291;22519;-87
2022/10/29 04:01:19;;;;;;;22.30;19.70;;;;;;;8.85;100.00;98539.78;103582;1309;22587;-86
2022/10/29 04:03:48;;;;;;;20.00;18.00;;;;;;;8.63;100.00;98544.55;103372;1289;22464;-87
2022/10/29 04:06:17;;;;;;;21.20;19.20;;;;;;;8.50;100.00;98541.06;103333;1294;25211;-88
2022/10/29 04:08:45;;;;;;;21.00;19.10;;;;;;;8.39;100.00;98549.33;103479;1310;24284;-83
2022/10/29 04:11:13;;;;;;;19.60;17.70;;;;;;;8.31;100.00;98550.05;103387;1309;22959;-87
2022/10/29 04:13:41;;;;;;;19.90;17.90;;;;;;;8.31;100.00;98549.35;103435;1310;24321;-88
2022/10/29 04:16:09;;;;;;;18.50;16.80;;;;;;;8.30;100.00;98544.67;103727;1291;25231;-85
2022/10/29 04:18:37;;;;;;;19.60;17.80;;;;;;;8.42;100.00;98539.02;103495;1310;24320;-88
2022/10/29 04:21:05;;;;;;;17.50;15.90;;;;;;;8.48;100.00;98542.83;103660;1310;24310;-89
2022/10/29 04:23:52;;;;;;;20.20;18.10;;;;;;;8.63;100.00;98551.84;103678;1310;22506;-87
2022/10/29 04:26:44;;;;;;;17.30;15.90;;;;;;;8.71;100.00;98537.18;103682;1296;25378;-86
2022/10/29 04:29:32;;;;;;;17.70;16.00;;;;;;;8.80;100.00;98529.16;103332;1310;22467;-87
2022/10/29 04:32:00;;;;;;;16.60;15.10;;;;;;;8.87;100.00;98529.20;103570;1310;22476;-87
2022/10/29 04:34:28;;;;;;;16.90;15.30;;;;;;;8.89;100.00;98524.35;103675;1306;22509;-88
2022/10/29 04:36:55;;;;;;;15.30;13.70;;;;;;;8.94;100.00;98527.52;103701;1307;22467;-86
2022/10/29 04:39:23;;;;;;;16.60;13.60;;;;;;;8.95;100.00;98522.09;103824;1316;22809;-87
2022/10/29 04:41:51;;;;;;;15.00;13.50;;;;;;;9.01;100.00;98526.69;105481;1304;22745;-88
2022/10/29 04:44:20;;;;;;;15.90;13.90;;;;;;;9.05;100.00;98531.46;105582;1310;22521;-88
2022/10/29 04:46:48;;;;;;;17.70;13.30;;;;;;;9.13;100.00;98532.73;106047;1310;22144;-88
2022/10/29 04:49:16;;;;;;;15.20;13.60;;;;;;;9.20;100.00;98520.72;105680;1296;22498;-87
2022/10/29 04:51:44;;;;;;;15.30;13.90;;;;;;;9.28;100.00;98522.69;105644;1294;22507;-88
2022/10/29 04:54:12;;;;;;;14.70;13.00;;;;;;;9.29;100.00;98528.98;105293;1308;22489;-89
2022/10/29 04:56:40;;;;;;;14.10;12.60;;;;;;;9.29;100.00;98537.68;105356;1310;23884;-89
2022/10/29 04:59:33;;;;;;;14.10;12.80;;;;;;;9.31;100.00;98534.34;104516;1313;22492;-89
2022/10/29 05:02:01;;;;;;;16.80;12.50;;;;;;;9.35;100.00;98538.04;103621;1294;25245;-86
2022/10/29 05:04:29;;;;;;;16.20;14.60;;;;;;;9.38;100.00;98532.81;103898;1294;22478;-88
2022/10/29 05:06:57;;;;;;;16.40;14.70;;;;;;;9.43;100.00;98531.18;103607;1311;22738;-86
2022/10/29 05:09:24;;;;;;;16.90;15.10;;;;;;;9.48;100.00;98528.41;103413;1294;23907;-85
2022/10/29 05:11:52;;;;;;;16.40;14.90;;;;;;;9.51;100.00;98516.08;103514;1310;22478;-87
2022/10/29 05:14:20;;;;;;;18.60;16.70;;;;;;;9.56;100.00;98512.07;103491;1293;22531;-87
2022/10/29 05:16:48;;;;;;;17.50;15.80;;;;;;;9.63;100.00;98504.67;103898;1316;25330;-87
2022/10/29 05:19:16;;;;;;;18.40;15.60;;;;;;;9.68;100.00;98496.57;103438;1311;22492;-87
2022/10/29 05:21:44;;;;;;;16.80;14.80;;;;;;;9.72;100.00;98510.64;103593;1310;22473;-86
2022/10/29 05:24:11;;;;;;;16.60;15.00;;;;;;;9.72;100.00;98521.52;103321;1301;25470;-88
2022/10/29 05:26:39;;;;;;;16.20;14.70;;;;;;;9.68;100.00;98506.64;103718;1310;24298;-87
2022/10/29 05:29:07;;;;;;;16.70;15.00;;;;;;;9.69;100.00;98517.45;103228;1310;23055;-85
2022/10/29 05:31:35;;;;;;;16.70;14.90;;;;;;;9.70;100.00;98528.95;103474;1310;23921;-88
2022/10/29 05:34:03;;;;;;;17.00;15.40;;;;;;;9.70;100.00;98526.15;103317;1305;22484;-87
2022/10/29 05:36:30;;;;;;;19.40;17.40;;;;;;;9.74;100.00;98527.21;103324;1288;22444;-90
2022/10/29 05:38:58;;;;;;;18.30;16.50;;;;;;;9.77;100.00;98530.96;103615;1310;24237;-90
2022/10/29 05:41:26;;;;;;;15.60;13.80;;;;;;;9.78;100.00;98558.20;103426;1310;24345;-90
2022/10/29 05:43:54;;;;;;;16.10;14.10;;;;;;;9.78;100.00;98563.52;103781;1310;23122;-87
2022/10/29 05:46:22;;;;;;;14.40;12.80;;;;;;;9.75;100.00;98544.42;103801;1288;25358;-88
2022/10/29 05:48:50;;;;;;;15.70;12.50;;;;;;;9.78;100.00;98541.50;103973;1310;22958;-86
2022/10/29 05:51:18;;;;;;;15.30;12.50;;;;;;;9.81;100.00;98548.83;103758;1310;24005;-86
2022/10/29 05:53:46;;;;;;;19.80;17.90;;;;;;;9.80;100.00;98537.14;103688;1302;22482;-87
2022/10/29 05:56:14;;;;;;;16.10;13.00;;;;;;;9.81;100.00;98538.05;103274;1310;23230;-85
2022/10/29 05:58:42;;;;;;;15.20;13.70;;;;;;;9.82;100.00;98533.58;103891;1309;22486;-86
2022/10/29 06:01:10;;;;;;;15.40;14.00;;;;;;;9.85;100.00;98538.61;103648;1301;24214;-88
2022/10/29 06:03:38;;;;;;;15.10;13.60;;;;;;;9.87;100.00;98534.63;103438;1294;25297;-87
2022/10/29 06:06:06;;;;;;;14.70;13.20;;;;;;;9.88;100.00;98535.58;103343;1297;25331;-87
2022/10/29 06:08:34;;;;;;;13.60;12.20;;;;;;;9.91;100.00;98527.23;103799;1315;22486;-89
2022/10/29 06:11:03;;;;;;;14.80;13.30;;;;;;;9.94;100.00;98523.64;103385;1312;23892;-90
2022/10/29 06:13:31;;;;;;;14.40;12.90;;;;;;;9.97;100.00;98524.83;103782;1310;22589;-88
2022/10/29 06:15:59;;;;;;;19.20;14.20;;;;;;;9.98;100.00;98522.23;103779;1310;22473;-88
2022/10/29 06:18:28;;;;;;;15.00;13.50;;;;;;;10.00;100.00;98527.60;103644;1316;24301;-89
2022/10/29 06:20:59;;;;;;;15.20;13.70;;;;;;;10.03;100.00;98527.73;103778;1300;22515;-86
2022/10/29 06:23:28;;;;;;;14.70;13.20;;;;;;;10.08;100.00;98524.95;103592;1310;22471;-87
2022/10/29 06:25:59;;;;;;;14.70;13.20;;;;;;;10.14;100.00;98519.81;103279;1310;25249;-86
2022/10/29 06:28:28;;;;;;;16.20;14.50;;;;;;;10.19;100.00;98525.63;103337;1294;22484;-87
2022/10/29 06:31:01;;;;;;;15.50;13.90;;;;;;;10.24;100.00;98529.91;103311;1310;23879;-87
2022/10/29 06:33:30;;;;;;;17.90;13.90;;;;;;;10.28;100.00;98537.34;104198;1301;22563;-87
2022/10/29 06:36:00;;;;;;;15.60;14.00;;;;;;;10.33;100.00;98543.23;103386;1310;24919;-89
2022/10/29 06:38:28;;;;;;;14.40;13.00;;;;;;;10.36;100.00;98549.23;104111;1307;26008;-87
2022/10/29 06:40:56;;;;;;;15.70;13.00;;;;;;;10.39;100.00;98558.05;103664;1310;22407;-87
2022/10/29 06:43:24;;;;;;;17.50;12.90;;;;;;;10.42;100.00;98560.56;103922;1310;24367;-86
2022/10/29 06:45:52;;;;;;;15.70;14.20;;;;;;;10.49;100.00;98553.84;103544;1309;22605;-85
2022/10/29 06:48:20;;;;;;;16.40;12.80;;;;;;;10.57;100.00;98559.70;103560;1310;22714;-87
2022/10/29 06:50:50;;;;;;;15.40;13.50;;;;;;;10.61;100.00;98562.95;103464;1310;22775;-84
2022/10/29 06:53:18;;;;;;;15.60;14.00;;;;;;;10.72;100.00;98573.69;103468;1310;24423;-85
2022/10/29 06:55:46;;;;;;;15.40;12.40;;;;;;;10.81;100.00;98582.46;103208;1310;22880;-85
2022/10/29 06:58:16;;;;;;;14.20;12.70;;;;;;;10.90;100.00;98581.77;103540;1310;24242;-85
2022/10/29 07:00:44;;;;;;;15.00;13.50;;;;;;;11.00;100.00;98583.58;103331;1293;25272;-84
2022/10/29 07:03:14;;;;;;;15.50;13.20;;;;;;;11.08;100.00;98582.09;103178;1310;22489;-85
2022/10/29 07:05:42;;;;;;;15.30;13.60;;;;;;;11.20;100.00;98584.56;103854;1294;22510;-85
2022/10/29 07:08:11;;;;;;;15.10;13.10;;;;;;;11.31;100.00;98584.39;103295;1310;22486;-86
2022/10/29 07:10:39;;;;;;;15.60;13.10;;;;;;;11.41;100.00;98584.87;103614;1309;22482;-86
2022/10/29 07:13:08;;;;;;;15.50;13.70;;;;;;;11.52;100.00;98586.80;103866;1295;24195;-85
2022/10/29 07:15:36;;;;;;;21.50;16.20;;;;;;;11.62;100.00;98586.19;103596;1310;22490;-83
2022/10/29 07:18:05;;;;;;;21.10;18.90;;;;;;;11.69;100.00;98589.13;103825;1310;24309;-84
2022/10/29 07:20:36;;;;;;;20.10;18.00;;;;;;;11.74;100.00;98594.69;103621;1308;22483;-86
2022/10/29 07:23:05;;;;;;;20.90;18.80;;;;;;;11.78;100.00;98595.50;103096;1303;22524;-80
2022/10/29 07:25:34;;;;;;;21.20;18.90;;;;;;;11.79;100.00;98594.40;103538;1303;22516;-86
2022/10/29 07:28:11;;;;;;;21.60;18.60;;;;;;;11.84;100.00;98593.55;103816;1310;22769;-84
2022/10/29 07:30:40;;;;;;;23.40;20.40;;;;;;;11.87;100.00;98594.23;103706;1310;23893;-83
2022/10/29 07:33:08;;;;;;;23.70;21.40;;;;;;;11.90;100.00;98595.55;103216;1303;22494;-85
2022/10/29 07:35:37;;;;;;;22.60;20.20;;;;;;;11.94;100.00;98598.89;103678;1310;22487;-84
2022/10/29 07:38:06;;;;;;;20.00;18.00;;;;;;;11.98;100.00;98603.48;103618;1310;25336;-83
2022/10/29 07:40:39;;;;;;;22.60;19.20;;;;;;;12.04;100.00;98606.77;103778;1310;24457;-87
2022/10/29 07:43:07;;;;;;;23.10;19.40;;;;;;;12.10;100.00;98612.55;103223;1301;25380;-84
2022/10/29 07:45:36;;;;;;;20.10;17.50;;;;;;;12.17;99.95;98612.91;103473;1288;22460;-86
2022/10/29 07:48:06;;;;;;;20.30;18.10;;;;;;;12.22;99.81;98609.96;103702;1310;22491;-86
2022/10/29 07:50:36;;;;;;;19.90;17.90;;;;;;;12.28;99.83;98614.42;103688;1310;22654;-84
2022/10/29 07:53:05;;;;;;;22.20;20.10;;;;;;;12.36;99.42;98617.98;103766;1309;22482;-85
2022/10/29 07:55:34;;;;;;;22.10;19.80;;;;;;;12.40;98.69;98614.46;103654;1310;22520;-86
2022/10/29 07:58:05;;;;;;;22.00;19.80;;;;;;;12.50;98.26;98616.38;103900;1304;22475;-85
2022/10/29 08:00:36;;;;;;;21.50;19.40;;;;;;;12.57;97.76;98620.43;103603;1310;24237;-88
2022/10/29 08:03:05;;;;;;;20.40;18.20;;;;;;;12.67;97.78;98621.41;103674;1286;23899;-84
2022/10/29 08:05:34;;;;;;;25.20;19.40;;;;;;;12.77;96.94;98623.27;103431;1300;22474;-84
2022/10/29 08:08:02;;;;;;;24.10;19.20;;;;;;;12.84;96.33;98617.26;103743;1310;22568;-85
2022/10/29 08:10:32;;;;;;;20.30;18.30;;;;;;;12.91;95.96;98619.95;104163;1302;22479;-86
2022/10/29 08:13:02;;;;;;;23.50;18.90;;;;;;;13.00;96.12;98619.68;104282;1310;22487;-88
2022/10/29 08:15:32;;;;;;;22.70;17.90;;;;;;;13.12;96.78;98619.15;104279;1310;22473;-87
2022/10/29 08:18:03;;;;;;;19.10;15.70;;;;;;;13.24;96.52;98620.85;104465;1294;23226;-86
2022/10/29 08:20:31;;;;;;;19.40;16.40;;;;;;;13.32;95.10;98623.48;104597;1294;22861;-86
2022/10/29 08:22:59;;;;;;;16.10;14.40;;;;;;;13.36;94.40;98624.82;104438;1310;22516;-87
2022/10/29 08:25:28;;;;;;;18.70;15.40;;;;;;;13.40;94.50;98623.93;105283;1310;22529;-90
2022/10/29 08:27:58;;;;;;;18.60;15.90;;;;;;;13.44;93.46;98630.58;104165;1295;22505;-90
2022/10/29 08:30:27;;;;;;;19.50;14.50;;;;;;;13.48;92.33;98626.81;105013;1310;25507;-88
2022/10/29 08:32:55;;;;;;;18.60;14.40;;;;;;;13.51;92.48;98624.27;104504;1310;22533;-86
2022/10/29 08:35:23;;;;;;;18.10;13.90;;;;;;;13.57;92.81;98628.70;104127;1310;24304;-86
2022/10/29 08:37:51;;;;;;;19.50;14.30;;;;;;;13.62;92.08;98633.90;104397;1310;25667;-88
2022/10/29 08:40:22;;;;;;;20.80;14.10;;;;;;;13.63;91.83;98630.31;104340;1310;25459;-90
2022/10/29 08:42:52;;;;;;;16.20;14.00;;;;;;;13.67;91.40;98635.29;103851;1310;22659;-85
2022/10/29 08:45:29;;;;;;;16.50;13.40;;;;;;;13.71;91.18;98634.89;103877;1309;24269;-90
2022/10/29 08:48:05;;;;;;;13.60;12.00;;;;;;;13.77;90.97;98626.03;103941;1294;24036;-90
2022/10/29 08:50:40;;;;;;;18.80;13.10;;;;;;;13.85;90.60;98628.74;103852;1291;25424;-87
2022/10/29 08:53:20;;;;;;;16.90;14.00;;;;;;;13.93;90.50;98632.37;104475;1309;22514;-85
2022/10/29 08:55:50;;;;;;;17.90;14.30;;;;;;;14.02;90.81;98628.34;104504;1310;22914;-88
2022/10/29 08:58:44;;;;;;;14.20;12.70;;;;;;;14.12;90.40;98629.73;104851;1294;22499;-90
2022/10/29 09:01:12;;;;;;;15.50;13.70;;;;;;;14.18;89.73;98624.59;104335;1289;25521;-85
2022/10/29 09:03:40;;;;;;;24.80;13.80;;;;;;;14.26;89.41;98620.12;104306;1294;22178;-87
2022/10/29 09:06:30;;;;;;;15.80;11.60;;;;;;;14.35;89.25;98614.50;104183;1310;22558;-85
2022/10/29 09:09:09;;;;;;;14.40;12.90;;;;;;;14.48;89.16;98612.70;104162;1288;22750;-86
2022/10/29 09:11:37;;;;;;;16.30;10.40;;;;;;;14.60;89.06;98619.55;104890;1310;22525;-85
2022/10/29 09:14:30;;;;;;;13.60;11.10;;;;;;;14.65;87.23;98614.23;105294;1306;22484;-88
2022/10/29 09:17:17;;;;;;;12.40;11.00;;;;;;;14.64;87.01;98612.17;103583;1310;23454;-86
2022/10/29 09:19:48;;;;;;;18.40;12.30;;;;;;;14.73;87.48;98612.36;104135;1295;25280;-88
2022/10/29 09:23:02;;;;;;;14.70;11.80;;;;;;;14.88;87.19;98623.27;103995;1300;22481;-86
2022/10/29 09:25:43;;;;;;;14.70;11.00;;;;;;;14.94;84.71;98620.58;103274;1318;22570;-86
2022/10/29 09:28:58;;;;;;;20.10;10.90;;;;;;;14.97;84.25;98618.27;103442;1318;22520;-88
2022/10/29 09:31:36;;;;;;;12.10;9.70;;;;;;;15.01;84.55;98612.21;103624;1317;24679;-89
2022/10/29 09:34:16;;;;;;;15.90;9.80;;;;;;;15.11;84.83;98612.97;103556;1318;22526;-89
2022/10/29 09:36:46;;;;;;;12.70;9.50;;;;;;;15.19;83.90;98613.04;104008;1318;22510;-87
2022/10/29 09:39:26;;;;;;;13.70;9.80;;;;;;;15.24;83.66;98607.70;103670;1313;22536;-87
2022/10/29 09:42:09;;;;;;;13.10;10.50;;;;;;;15.28;83.68;98612.59;104069;1318;25273;-90
2022/10/29 09:44:47;;;;;;;13.40;9.20;;;;;;;15.32;82.21;98624.07;104099;1318;24306;-90
2022/10/29 09:47:17;;;;;;;12.10;10.70;;;;;;;15.30;82.18;98626.30;103733;1300;22528;-91
2022/10/29 09:49:48;;;;;;;11.30;9.90;;;;;;;15.26;82.08;98621.84;103689;1317;25216;-89
2022/10/29 09:52:22;;;;;;;14.40;9.70;;;;;;;15.25;82.32;98610.94;103547;1318;22261;-88
2022/10/29 09:54:52;;;;;;;17.90;10.40;;;;;;;15.30;81.69;98612.11;103778;1318;22480;-89
2022/10/29 09:57:28;;;;;;;13.50;10.10;;;;;;;15.32;82.25;98606.57;103521;1300;25268;-88
2022/10/29 10:00:00;;;;;;;11.70;9.40;;;;;;;15.44;82.29;98609.46;104583;1310;22449;-87
2022/10/29 10:02:48;;;;;;;16.20;9.40;;;;;;;15.54;82.25;98603.30;104574;1309;22469;-86
2022/10/29 10:05:24;;;;;;;14.80;10.10;;;;;;;15.67;81.50;98608.35;104377;1310;22443;-90
2022/10/29 10:08:05;;;;;;;12.90;9.10;;;;;;;15.74;80.97;98598.52;104580;1289;22474;-90
2022/10/29 10:10:38;;;;;;;14.60;10.10;;;;;;;15.73;80.09;98604.29;105541;1310;22526;-86
2022/10/29 10:13:14;;;;;;;11.00;9.30;;;;;;;15.70;80.20;98592.69;106274;1284;22301;-83
2022/10/29 10:15:57;;;;;;;14.10;10.50;;;;;;;15.64;80.32;98588.31;105681;1308;24279;-87
2022/10/29 10:18:29;;;;;;;13.30;9.80;;;;;;;15.63;80.59;98593.56;105009;1310;24238;-88
2022/10/29 10:21:00;;;;;;;13.10;9.80;;;;;;;15.66;80.21;98591.99;104794;1310;22475;-88
2022/10/29 10:23:52;;;;;;;13.10;9.50;;;;;;;15.71;79.79;98586.02;103694;1308;25592;-88
2022/10/29 10:26:31;;;;;;;9.40;8.40;;;;;;;15.86;80.33;98579.63;104212;1309;22507;-87
2022/10/29 10:29:05;;;;;;;12.90;8.70;;;;;;;16.06;79.84;98576.73;103818;1310;22473;-89
2022/10/29 10:31:33;;;;;;;10.30;8.90;;;;;;;16.26;79.69;98582.61;105791;1288;22818;-88
2022/10/29 10:34:15;;;;;;;14.10;8.80;;;;;;;16.34;78.62;98581.27;105812;1297;22442;-88
2022/10/29 10:37:04;;;;;;;13.60;9.20;;;;;;;16.36;79.14;98576.79;106007;1295;25195;-87
2022/10/29 10:39:37;;;;;;;13.30;8.60;;;;;;;16.41;78.59;98566.41;105948;1303;23938;-90
2022/10/29 10:42:14;;;;;;;11.20;8.20;;;;;;;16.42;78.55;98563.11;104957;1304;23966;-86
2022/10/29 10:44:51;;;;;;;13.90;7.90;;;;;;;16.48;78.07;98561.20;106588;1279;22507;-91
2022/10/29 10:47:32;;;;;;;19.80;8.40;;;;;;;16.57;78.32;98556.55;106497;1307;22465;-91
2022/10/29 10:50:31;;;;;;;12.00;7.80;;;;;;;16.70;78.28;98554.33;105764;1307;26068;-89
2022/10/29 10:53:14;;;;;;;16.00;8.10;;;;;;;16.79;76.67;98552.13;104102;1307;25286;-90
2022/10/29 10:55:56;;;;;;;11.10;7.40;;;;;;;16.81;75.64;98554.11;104853;1307;22866;-89
2022/10/29 10:58:37;;;;;;;12.70;8.10;;;;;;;16.79;75.63;98548.39;104264;1295;26468;-92
2022/10/29 11:01:23;;;;;;;10.30;7.50;;;;;;;16.89;75.91;98540.84;105192;1307;23521;-90
2022/10/29 11:04:17;;;;;;;9.40;8.20;;;;;;;17.14;74.32;98533.32;105941;1303;22881;-85
2022/10/29 11:06:49;;;;;;;12.70;8.40;;;;;;;17.45;74.69;98533.52;104709;1307;22823;-88
2022/10/29 11:09:39;;;;;;;14.70;8.50;;;;;;;17.73;73.86;98546.77;104399;1307;24253;-89
2022/10/29 11:12:43;;;;;;;10.50;9.00;;;;;;;17.90;72.82;98544.41;104665;1307;24289;-87
2022/10/29 11:15:13;;;;;;;12.80;8.90;;;;;;;18.00;71.84;98535.26;104312;1309;22590;-87
2022/10/29 11:17:55;;;;;;;16.80;9.40;;;;;;;18.08;72.02;98532.79;104583;1309;22256;-86
2022/10/29 11:20:34;;;;;;;12.50;8.10;;;;;;;18.20;72.37;98526.19;105085;1301;22892;-87
2022/10/29 11:23:33;;;;;;;12.60;8.00;;;;;;;18.30;71.27;98526.80;103949;1287;25294;-85
2022/10/29 11:26:12;;;;;;;15.40;9.00;;;;;;;18.27;71.83;98525.45;103919;1310;22603;-87
2022/10/29 11:28:54;;;;;;;14.90;9.60;;;;;;;18.29;71.76;98524.80;103871;1289;156103;-88
2022/10/29 11:31:35;;;;;;;12.40;8.00;;;;;;;18.36;71.80;98530.05;103886;1310;25398;-86
2022/10/29 11:34:03;;;;;;;15.90;8.70;;;;;;;18.43;70.09;98523.83;103871;1310;24292;-84
2022/10/29 11:36:42;;;;;;;13.90;8.60;;;;;;;18.48;70.48;98530.79;104881;1310;24261;-85
2022/10/29 11:39:37;;;;;;;11.60;8.10;;;;;;;18.52;69.56;98532.52;104340;1306;25244;-82